Imperial County Airport
KIPL : now visible

Airfield :











YOU CAN JOIN US ON...

 
LOGIN :

Register | Disclaimer

   EN    FR    IT 

 









Legend :    VFR   Marginal VFR   IFR   Intensive IFR   Very Intensive IFR
Visi :
Ceiling :
>= 8 km
>= 3000ft
5 to 8 km
1000 to 3000 ft
1500m to 5 km
500 to 1000 ft
800 to 1500m
200 to 500 ft
< 800m
< 200 ft
Symbols :   Thunderstorms  Fog  Heavy snow  Heavy precipitations  Wind > 20 kt






- Airport Elevation : -54 ft


KIPL - Imperial County

CURRENT METAR :
  • 071953Z AUTO 00000KT 10SM FEW055 23/08 A2998 RMK AO2 SLP152 T02330083

EXPIRED METARs :
  • 071853Z AUTO 07008KT 10SM CLR 22/08 A3000 RMK AO2 SLP159 T02220083
  • 071753Z AUTO 00000KT 10SM CLR 21/08 A3002 RMK AO2 SLP166 T02060083 10211 20111 50007

TAF KIPL
Valid from the 07 at 18:00 until the 08 at 18:00 UTC


071720Z 0718/0818 VRB04KT P6SM BKN070
FM072200 27009KT P6SM BKN070
FM080800 26012G22KT P6SM VCSH BKN060
PROB30 0811/0815 3SM SHRA BR OVC040
FM081500 28012KT P6SM VCSH SCT040 BKN100



MET'MAP, your aeronautical weather chart ! - Copyright ORBIFLY December 2007 - Disclaimer

ORBIFLY MET'MAP TEAM :

Programming & Development : Alexandra Zaïnal
Concept & original design : Baudouin d'Aumeries
Assistance for programming : Marc-Olivier Méhu
Technical & hardware support : Manuel Goepfert

Contact : metmap@orbifly.com




SOURCES & CREDITS :

   NOAA       Earth
Advisory